Accueil
METAR-TAF:

METAR-TAF

Aéroports :

Aéroport international de Bâle-Mulhouse-Fribourg

Bâle-Mulhouse, France

latitude: 47-36N, longitude: 007-31E, altitude: 270 m

Observation

Le bulletin a été fait il y a 28 minutes, à 01:30 UTC
Vent 1 kt de sud/sud-ouest
Température 6°C
Humidité 70%
Pression 1026 hPa
Visibilité 10 km ou plus
pas de nuages en-dessous de 1500 mètres et pas de cumulonimbus.

METAR: LFSB 080130Z AUTO 20001KT CAVOK 06/01 Q1026 NOSIG

Heure: 03:58 (01:58 UTC)

Prévision

Le bulletin a été fait il y a 2 heures et 58 minutes, à 23:00 UTC
Prévision valable du 08 à 00 UTC au 08 à 24 UTC
Vent 3 kt de direction variable
Visibilité 10 km ou plus
pas de nuages en-dessous de 1500 mètres et pas de cumulonimbus.

TAF: LFSB 072300Z 0800/0824 VRB03KT CAVOK

Observations et prévisions météorologiques de plus de 4000 aéroports (messages METAR et TAF).

Les stations disponibles sont représentées par des disques jaunes et rouges sur la carte.

Passer la souris dessus pour voir le nom de la station.

Cliquer dessus pour voir les observations et prévisions météorologiques.

Pour changer de carte: cliquez sur les boutons verts avec une croix noire pour zoomer, sur le bouton vert avec un tiret pour effectuer un zoom arrière, ou sur les flèches vertes pour les cartes adjacentes.


METAR-TAF: